Time;durP1;ratioP1;P1;durP2;ratioP2;P2;SDS_P1;SDS_P2;PMS_P1;PMS_P2;Temp;Humidity;BMP_temperature;BMP_pressure;BME280_temperature;BME280_humidity;BME280_pressure;Samples;Min_cycle;Max_cycle;Signal;HPM_P1;HPM_P2
2023/11/02 00:00:34;;;;;;;;;;;;;;;5.02;100.00;97661.41;5005426;28;19945;-84
2023/11/02 00:02:59;;;;;;;;;;;;;;;4.82;100.00;97662.50;5005454;28;19921;-86
2023/11/02 00:05:43;;;;;;;;;;;;;;;4.88;100.00;97646.41;5006420;28;19925;-85
2023/11/02 00:08:10;;;;;;;;;;;;;;;4.90;100.00;97634.06;5022195;28;19924;-84
2023/11/02 00:10:35;;;;;;;;;;;;;;;4.79;100.00;97633.78;5024392;28;19972;-85
2023/11/02 00:13:01;;;;;;;;;;;;;;;4.90;100.00;97615.69;5023055;28;19971;-86
2023/11/02 00:15:26;;;;;;;;;;;;;;;4.73;100.00;97613.97;5006744;28;19967;-86
2023/11/02 00:17:54;;;;;;;;;;;;;;;4.93;100.00;97605.94;5004819;28;19929;-85
2023/11/02 00:20:28;;;;;;;;;;;;;;;4.89;100.00;97595.59;5023602;28;19944;-85
2023/11/02 00:22:53;;;;;;;;;;;;;;;4.89;100.00;97577.25;5023259;28;20007;-89
2023/11/02 00:25:42;;;;;;;;;;;;;;;5.02;100.00;97571.31;5004093;28;20031;-88
2023/11/02 00:28:08;;;;;;;;;;;;;;;5.03;100.00;97559.91;4994313;28;19921;-86
2023/11/02 00:30:35;;;;;;;;;;;;;;;4.75;100.00;97558.78;5018057;28;19948;-83
2023/11/02 00:33:00;;;;;;;;;;;;;;;4.79;100.00;97547.19;5005658;28;19921;-84
2023/11/02 00:35:26;;;;;;;;;;;;;;;4.86;100.00;97538.03;5005765;28;19924;-84
2023/11/02 00:37:57;;;;;;;;;;;;;;;4.87;100.00;97526.63;5005951;28;19931;-86
2023/11/02 00:40:22;;;;;;;;;;;;;;;4.82;100.00;97526.03;5022557;28;19925;-83
2023/11/02 00:42:51;;;;;;;;;;;;;;;4.89;100.00;97518.66;5022013;28;20436;-83
2023/11/02 08:51:37;;;;;;;;;;;;;;;7.09;100.00;96531.19;5547517;23;19933;-84
2023/11/02 08:54:03;;;;;;;;;;;;;;;7.35;100.00;96540.59;5033332;28;19921;-90
2023/11/02 08:56:28;;;;;;;;;;;;;;;7.67;100.00;96540.56;5015547;28;19929;-86
2023/11/02 08:58:54;;;;;;;;;;;;;;;7.50;100.00;96527.94;5033092;28;19916;-87
2023/11/02 09:01:22;;;;;;;;;;;;;;;7.39;100.00;96521.78;5033234;28;19921;-83
2023/11/02 09:03:48;;;;;;;;;;;;;;;7.49;100.00;96521.03;5033155;28;19925;-85
2023/11/02 09:06:13;;;;;;;;;;;;;;;7.29;100.00;96512.94;5031747;28;19936;-83
2023/11/02 09:08:38;;;;;;;;;;;;;;;7.30;100.00;96508.53;5032978;28;19920;-84
2023/11/02 09:11:04;;;;;;;;;;;;;;;7.39;100.00;96513.88;5032973;28;20326;-84
2023/11/02 09:13:30;;;;;;;;;;;;;;;7.21;100.00;96516.22;5015254;28;20016;-83
2023/11/02 09:15:56;;;;;;;;;;;;;;;7.61;100.00;96514.72;5032777;28;20276;-85
2023/11/02 09:18:24;;;;;;;;;;;;;;;7.44;100.00;96514.34;5015135;28;19929;-85
2023/11/02 09:20:50;;;;;;;;;;;;;;;7.50;100.00;96514.78;5031509;28;19917;-87
2023/11/02 09:23:16;;;;;;;;;;;;;;;7.33;100.00;96514.38;5015053;28;19924;-84
2023/11/02 09:25:41;;;;;;;;;;;;;;;7.39;100.00;96513.88;5032673;28;20287;-85
2023/11/02 09:28:07;;;;;;;;;;;;;;;7.60;100.00;96515.72;5032635;28;20291;-86
2023/11/02 09:30:33;;;;;;;;;;;;;;;7.72;100.00;96527.03;5032819;28;19921;-83
2023/11/02 09:32:59;;;;;;;;;;;;;;;7.90;100.00;96541.31;5032478;28;19939;-88
2023/11/02 09:35:25;;;;;;;;;;;;;;;7.72;100.00;96548.97;5031253;28;19917;-87
2023/11/02 09:37:50;;;;;;;;;;;;;;;7.59;100.00;96533.31;5032379;28;19921;-87
2023/11/02 09:40:16;;;;;;;;;;;;;;;7.60;100.00;96539.44;5032525;28;19917;-89
2023/11/02 09:42:42;;;;;;;;;;;;;;;7.74;100.00;96515.41;5031871;28;19940;-87
2023/11/02 09:45:08;;;;;;;;;;;;;;;7.86;100.00;96566.25;5032405;28;19978;-87
2023/11/02 09:47:33;;;;;;;;;;;;;;;7.61;100.00;96552.47;5032214;28;19917;-83
2023/11/02 09:49:59;;;;;;;;;;;;;;;7.71;100.00;96536.75;5031911;28;19940;-88
2023/11/02 09:52:24;;;;;;;;;;;;;;;7.72;100.00;96554.22;5030771;28;19951;-84
2023/11/02 09:54:49;;;;;;;;;;;;;;;7.91;100.00;96557.97;5014489;28;19962;-83
2023/11/02 09:57:15;;;;;;;;;;;;;;;7.79;100.00;96560.66;5032330;28;20010;-88
2023/11/02 09:59:44;;;;;;;;;;;;;;;7.70;100.00;96574.59;5032061;28;19921;-84
2023/11/02 10:02:11;;;;;;;;;;;;;;;8.03;100.00;96575.41;5031904;28;19925;-86
2023/11/02 10:04:37;;;;;;;;;;;;;;;7.93;100.00;96551.59;5031644;28;19924;-88
2023/11/02 10:07:02;;;;;;;;;;;;;;;7.67;100.00;96551.13;5029804;28;19921;-84
2023/11/02 10:09:28;;;;;;;;;;;;;;;7.76;100.00;96553.00;5031846;28;20395;-87
2023/11/02 10:11:53;;;;;;;;;;;;;;;7.61;100.00;96535.81;5031906;28;20004;-84
2023/11/02 10:14:18;;;;;;;;;;;;;;;7.56;100.00;96524.81;5031861;28;19917;-87
2023/11/02 10:16:43;;;;;;;;;;;;;;;7.87;100.00;96540.75;5031869;28;19964;-86
2023/11/02 10:19:09;;;;;;;;;;;;;;;7.75;100.00;96540.78;5014050;28;19963;-84
2023/11/02 10:21:38;;;;;;;;;;;;;;;7.66;100.00;96525.75;5030781;28;19921;-85
2023/11/02 10:24:03;;;;;;;;;;;;;;;7.63;100.00;96516.28;5031759;28;19917;-85
2023/11/02 10:26:29;;;;;;;;;;;;;;;7.58;100.00;96517.66;5031941;28;19921;-86
2023/11/02 10:28:57;;;;;;;;;;;;;;;7.79;100.00;96529.03;5030973;28;19944;-84
2023/11/02 10:31:30;;;;;;;;;;;;;;;7.72;100.00;96525.25;5031719;28;19972;-87
2023/11/02 10:33:55;;;;;;;;;;;;;;;7.81;100.00;96553.44;5030947;28;19921;-84
2023/11/02 10:36:20;;;;;;;;;;;;;;;7.78;100.00;96566.06;5030325;28;20444;-84
2023/11/02 10:38:46;;;;;;;;;;;;;;;7.89;100.00;96547.53;5031642;28;19921;-89
2023/11/02 10:41:15;;;;;;;;;;;;;;;7.84;100.00;96535.72;5031762;28;20364;-85
2023/11/02 10:43:41;;;;;;;;;;;;;;;7.64;100.00;96546.09;5031747;28;19925;-87
2023/11/02 10:46:10;;;;;;;;;;;;;;;7.87;100.00;96543.38;5031725;28;20418;-87
2023/11/02 10:48:37;;;;;;;;;;;;;;;8.06;100.00;96540.88;5030738;28;19917;-85
2023/11/02 10:51:04;;;;;;;;;;;;;;;8.09;100.00;96568.75;5030092;28;20386;-88
2023/11/02 10:53:37;;;;;;;;;;;;;;;7.71;100.00;96570.16;5032235;28;19929;-86
2023/11/02 10:56:06;;;;;;;;;;;;;;;7.63;100.00;96565.53;5017563;28;19917;-87
2023/11/02 10:58:31;;;;;;;;;;;;;;;7.54;100.00;96558.38;5017460;28;20371;-87
2023/11/02 11:00:57;;;;;;;;;;;;;;;7.63;100.00;96560.25;5035434;28;19928;-85
2023/11/02 11:03:23;;;;;;;;;;;;;;;7.76;100.00;96555.63;5035315;28;19917;-85
2023/11/02 11:05:49;;;;;;;;;;;;;;;7.64;100.00;96556.63;5034018;28;20328;-85
2023/11/02 11:08:16;;;;;;;;;;;;;;;7.66;100.00;96559.16;5016987;28;20334;-84
2023/11/02 11:10:43;;;;;;;;;;;;;;;7.75;100.00;96538.13;5035003;28;20015;-83
2023/11/02 11:13:10;;;;;;;;;;;;;;;7.75;100.00;96524.97;5034617;28;19917;-88
2023/11/02 11:15:36;;;;;;;;;;;;;;;7.56;100.00;96532.72;5035132;28;20394;-84
2023/11/02 11:18:01;;;;;;;;;;;;;;;7.70;100.00;96524.50;5035209;28;19921;-86
2023/11/02 11:20:27;;;;;;;;;;;;;;;7.95;100.00;96533.03;5034072;28;19917;-85
2023/11/02 11:22:52;;;;;;;;;;;;;;;8.07;100.00;96534.59;5034999;28;20400;-88
2023/11/02 11:25:18;;;;;;;;;;;;;;;7.84;100.00;96527.81;5034204;28;19967;-84
2023/11/02 11:27:43;;;;;;;;;;;;;;;7.81;100.00;96542.06;5034559;28;19921;-86
2023/11/02 11:30:21;;;;;;;;;;;;;;;7.94;100.00;96534.81;5035005;28;20444;-89
2023/11/02 11:32:48;;;;;;;;;;;;;;;7.73;100.00;96533.97;5034772;28;20345;-86
2023/11/02 11:35:17;;;;;;;;;;;;;;;7.60;100.00;96544.69;5034172;28;20408;-86
2023/11/02 11:37:58;;;;;;;;;;;;;;;7.52;100.00;96542.69;5034229;28;19920;-88
2023/11/02 11:40:23;;;;;;;;;;;;;;;7.52;100.00;96531.31;5016827;28;19924;-87
2023/11/02 11:42:52;;;;;;;;;;;;;;;7.46;100.00;96537.91;5016845;28;19917;-86
2023/11/02 11:45:46;;;;;;;;;;;;;;;7.68;100.00;96537.00;5034638;28;20314;-86
2023/11/02 11:48:35;;;;;;;;;;;;;;;7.49;100.00;96531.56;5013387;28;19921;-87
2023/11/02 11:51:03;;;;;;;;;;;;;;;7.60;100.00;96528.88;5015126;28;20431;-84
2023/11/02 11:53:28;;;;;;;;;;;;;;;7.64;100.00;96527.66;5017240;28;19921;-85
2023/11/02 11:55:55;;;;;;;;;;;;;;;7.74;100.00;96531.22;5028890;28;19925;-85
2023/11/02 11:58:41;;;;;;;;;;;;;;;7.93;100.00;96538.44;5033940;28;19921;-85
2023/11/02 12:01:13;;;;;;;;;;;;;;;7.81;100.00;96527.09;5006421;28;19925;-83
2023/11/02 12:03:38;;;;;;;;;;;;;;;7.70;100.00;96527.16;5034048;28;20360;-87
2023/11/02 12:06:04;;;;;;;;;;;;;;;7.78;100.00;96516.78;5014658;28;19983;-85
2023/11/02 12:08:31;;;;;;;;;;;;;;;7.69;100.00;96516.72;5033986;28;19949;-87
2023/11/02 12:10:57;;;;;;;;;;;;;;;7.64;100.00;96511.84;5016212;28;19960;-86
2023/11/02 12:13:24;;;;;;;;;;;;;;;7.93;100.00;96527.03;5034585;28;20018;-89
2023/11/02 12:15:50;;;;;;;;;;;;;;;7.93;100.00;96498.03;5016121;28;20284;-88
2023/11/02 12:18:16;;;;;;;;;;;;;;;7.71;100.00;96489.31;5017100;28;19928;-88
2023/11/02 12:20:44;;;;;;;;;;;;;;;8.05;100.00;96491.72;5015004;28;20214;-86
2023/11/02 12:23:09;;;;;;;;;;;;;;;7.71;100.00;96491.94;5028376;28;19956;-85
2023/11/02 12:25:37;;;;;;;;;;;;;;;7.80;100.00;96491.16;5016455;28;19967;-90
2023/11/02 12:28:03;;;;;;;;;;;;;;;8.01;100.00;96485.06;5024185;28;19970;-85
2023/11/02 12:30:29;;;;;;;;;;;;;;;8.14;100.00;96490.94;5033719;28;19925;-84
2023/11/02 12:32:54;;;;;;;;;;;;;;;8.02;100.00;96506.97;5033727;28;19925;-86
2023/11/02 12:35:21;;;;;;;;;;;;;;;8.02;100.00;96515.72;5014613;28;20492;-86
2023/11/02 12:37:58;;;;;;;;;;;;;;;8.00;100.00;96501.81;5015836;28;19928;-84
2023/11/02 12:40:24;;;;;;;;;;;;;;;7.89;100.00;96478.19;5032673;28;20000;-87
2023/11/02 12:42:49;;;;;;;;;;;;;;;8.01;100.00;96485.06;5033311;28;20139;-89
2023/11/02 12:45:21;;;;;;;;;;;;;;;8.22;100.00;96477.09;5033566;28;20363;-87
2023/11/02 12:47:46;;;;;;;;;;;;;;;8.06;100.00;96488.13;5015775;28;20443;-86
2023/11/02 12:50:32;;;;;;;;;;;;;;;8.22;100.00;96502.63;5032980;28;20020;-87
2023/11/02 12:53:01;;;;;;;;;;;;;;;8.35;100.00;96487.44;5014744;28;19932;-86
2023/11/02 12:55:28;;;;;;;;;;;;;;;8.43;100.00;96482.34;5032710;28;19932;-86
2023/11/02 12:57:54;;;;;;;;;;;;;;;8.28;100.00;96481.84;5033002;28;19917;-87
2023/11/02 13:00:29;;;;;;;;;;;;;;;8.26;100.00;96482.94;5033727;28;20008;-95
2023/11/02 13:03:09;;;;;;;;;;;;;;;8.05;100.00;96477.72;5033045;28;19917;-88
2023/11/02 13:05:35;;;;;;;;;;;;;;;8.13;100.00;96470.81;5031646;28;19927;-90
2023/11/02 13:08:01;;;;;;;;;;;;;;;8.10;100.00;96452.59;5015040;28;20311;-87
2023/11/02 13:10:26;;;;;;;;;;;;;;;8.25;100.00;96461.03;5033113;28;19917;-86
2023/11/02 13:12:55;;;;;;;;;;;;;;;8.37;100.00;96448.56;5032086;28;20723;-89
2023/11/02 13:15:21;;;;;;;;;;;;;;;8.44;100.00;96448.88;5032720;28;19917;-85
2023/11/02 13:17:46;;;;;;;;;;;;;;;8.07;100.00;96457.31;5032134;28;19971;-84
2023/11/02 13:20:14;;;;;;;;;;;;;;;8.25;100.00;96460.16;5032231;28;19921;-86
2023/11/02 13:22:39;;;;;;;;;;;;;;;7.99;100.00;96466.72;5032341;28;19921;-85
2023/11/02 13:25:08;;;;;;;;;;;;;;;8.16;100.00;96477.63;5032732;28;19971;-86
2023/11/02 13:27:34;;;;;;;;;;;;;;;8.39;100.00;96462.44;5032887;28;19918;-84
2023/11/02 13:30:00;;;;;;;;;;;;;;;8.28;100.00;96459.91;5032606;28;19921;-86
2023/11/02 13:32:25;;;;;;;;;;;;;;;8.52;100.00;96457.81;5014829;28;19921;-85
2023/11/02 13:34:50;;;;;;;;;;;;;;;8.23;100.00;96452.38;5014761;28;19925;-91
2023/11/02 13:37:16;;;;;;;;;;;;;;;8.28;100.00;96473.09;5013362;28;19944;-85
2023/11/02 13:39:42;;;;;;;;;;;;;;;8.49;100.00;96458.09;5032255;28;19917;-84
2023/11/02 13:42:08;;;;;;;;;;;;;;;8.31;100.00;96464.91;5032587;28;19999;-85
2023/11/02 13:44:33;;;;;;;;;;;;;;;8.46;100.00;96474.19;5033681;28;20245;-87
2023/11/02 13:46:59;;;;;;;;;;;;;;;8.45;100.00;96467.22;5014612;28;20367;-90
2023/11/02 13:49:30;;;;;;;;;;;;;;;8.13;100.00;96467.34;5032443;28;19987;-90
2023/11/02 13:51:55;;;;;;;;;;;;;;;8.01;100.00;96445.50;5030636;28;19921;-86
2023/11/02 13:54:20;;;;;;;;;;;;;;;8.19;100.00;96449.19;5032342;28;19936;-86
2023/11/02 13:56:46;;;;;;;;;;;;;;;7.91;100.00;96448.06;5032326;28;19967;-89
2023/11/02 13:59:11;;;;;;;;;;;;;;;8.04;100.00;96458.44;5032316;28;19925;-84
2023/11/02 14:01:37;;;;;;;;;;;;;;;7.90;100.00;96445.59;5034169;28;20380;-94
2023/11/02 14:04:02;;;;;;;;;;;;;;;8.04;100.00;96437.34;5032084;28;20372;-86
2023/11/02 14:06:27;;;;;;;;;;;;;;;8.38;100.00;96455.50;5030747;28;19964;-86
2023/11/02 14:08:52;;;;;;;;;;;;;;;8.07;100.00;96426.50;5033447;28;20291;-86
2023/11/02 14:11:18;;;;;;;;;;;;;;;8.24;100.00;96422.41;5031953;28;19917;-85
2023/11/02 14:13:43;;;;;;;;;;;;;;;8.46;100.00;96425.88;5032124;28;19925;-87
2023/11/02 14:16:09;;;;;;;;;;;;;;;8.50;100.00;96437.81;5031662;28;19917;-86
2023/11/02 14:18:37;;;;;;;;;;;;;;;8.30;100.00;96432.44;5014246;28;19917;-88
2023/11/02 14:21:03;;;;;;;;;;;;;;;8.16;100.00;96430.97;5012705;28;19921;-89
2023/11/02 14:23:28;;;;;;;;;;;;;;;8.38;100.00;96447.59;5032430;28;19971;-90
2023/11/02 14:25:55;;;;;;;;;;;;;;;8.51;100.00;96418.38;5014785;28;19921;-86
2023/11/02 14:28:20;;;;;;;;;;;;;;;8.24;100.00;96416.31;5034037;28;19972;-84
2023/11/02 14:30:46;;;;;;;;;;;;;;;8.48;100.00;96405.44;5042840;28;19917;-92
2023/11/02 14:33:11;;;;;;;;;;;;;;;8.48;100.00;96413.38;5020828;28;20092;-84
2023/11/02 14:35:37;;;;;;;;;;;;;;;8.32;100.00;96412.03;5017189;28;20357;-91
2023/11/02 14:38:03;;;;;;;;;;;;;;;8.53;100.00;96419.06;5035451;28;19996;-93
2023/11/02 14:40:29;;;;;;;;;;;;;;;8.45;100.00;96432.91;5033167;28;20314;-86
2023/11/02 14:42:54;;;;;;;;;;;;;;;8.33;100.00;96431.34;5017998;28;20147;-85
2023/11/02 14:45:19;;;;;;;;;;;;;;;8.48;100.00;96451.13;5035641;28;20283;-86
2023/11/02 14:47:50;;;;;;;;;;;;;;;8.53;100.00;96442.81;5017865;28;19968;-86
2023/11/02 14:50:16;;;;;;;;;;;;;;;8.44;100.00;96459.44;5034881;28;19917;-84
2023/11/02 14:52:45;;;;;;;;;;;;;;;8.47;100.00;96454.75;5035092;28;19925;-83
2023/11/02 14:55:10;;;;;;;;;;;;;;;8.53;100.00;96451.56;5017573;28;19917;-86
2023/11/02 14:57:35;;;;;;;;;;;;;;;8.62;100.00;96459.66;5035979;28;19917;-90
2023/11/02 15:00:01;;;;;;;;;;;;;;;8.65;100.00;96473.41;5035486;28;19988;-84
2023/11/02 15:02:27;;;;;;;;;;;;;;;8.47;100.00;96469.72;5035322;28;20466;-87
2023/11/02 15:04:53;;;;;;;;;;;;;;;8.23;100.00;96462.09;5035424;28;20003;-85
2023/11/02 15:07:18;;;;;;;;;;;;;;;8.08;100.00;96456.34;5035292;28;20010;-91
2023/11/02 15:09:44;;;;;;;;;;;;;;;8.63;100.00;96458.66;5036062;28;19960;-87
2023/11/02 15:12:10;;;;;;;;;;;;;;;8.69;100.00;96464.25;5035237;28;19921;-83
2023/11/02 15:14:35;;;;;;;;;;;;;;;8.63;100.00;96463.94;5035356;28;19964;-85
2023/11/02 15:17:01;;;;;;;;;;;;;;;8.50;100.00;96451.84;5035118;28;19925;-84
2023/11/02 15:19:28;;;;;;;;;;;;;;;8.62;100.00;96435.91;5035020;28;20404;-82
2023/11/02 15:21:56;;;;;;;;;;;;;;;8.63;100.00;96437.56;5034067;28;20355;-90
2023/11/02 15:24:24;;;;;;;;;;;;;;;8.74;100.00;96440.06;5034910;28;19971;-89
2023/11/02 15:26:49;;;;;;;;;;;;;;;8.42;100.00;96448.97;5034944;28;19917;-86
2023/11/02 15:29:15;;;;;;;;;;;;;;;8.37;100.00;96445.91;5034851;28;20335;-85
2023/11/02 15:31:40;;;;;;;;;;;;;;;8.27;100.00;96455.63;5035102;28;19921;-82
2023/11/02 15:34:05;;;;;;;;;;;;;;;8.14;100.00;96454.03;5034905;28;19932;-83
2023/11/02 15:36:37;;;;;;;;;;;;;;;8.02;100.00;96448.97;5033461;28;19921;-84
2023/11/02 15:39:04;;;;;;;;;;;;;;;8.08;100.00;96449.28;5033640;28;19927;-84
2023/11/02 15:41:30;;;;;;;;;;;;;;;8.02;100.00;96455.06;5017170;28;20031;-86
2023/11/02 15:43:55;;;;;;;;;;;;;;;8.08;100.00;96449.28;5034366;28;20349;-83
2023/11/02 15:46:21;;;;;;;;;;;;;;;8.36;100.00;96470.66;5034324;28;19944;-82
2023/11/02 15:48:46;;;;;;;;;;;;;;;8.34;100.00;96464.66;5034586;28;19971;-82
2023/11/02 15:51:11;;;;;;;;;;;;;;;8.12;100.00;96453.34;5015351;28;19923;-84
2023/11/02 15:53:37;;;;;;;;;;;;;;;8.06;100.00;96466.19;5016519;28;19999;-90
2023/11/02 15:56:12;;;;;;;;;;;;;;;8.09;100.00;96458.88;5034355;28;19979;-86
2023/11/02 15:58:37;;;;;;;;;;;;;;;8.05;100.00;96468.00;5034226;28;19924;-84
2023/11/02 16:01:04;;;;;;;;;;;;;;;8.04;100.00;96470.75;5034209;28;19921;-85
2023/11/02 16:03:29;;;;;;;;;;;;;;;8.18;100.00;96466.00;5033190;28;19917;-83
2023/11/02 16:05:55;;;;;;;;;;;;;;;8.33;100.00;96474.38;5032945;28;20356;-88
2023/11/02 16:08:21;;;;;;;;;;;;;;;8.11;100.00;96479.84;5034188;28;20284;-86
2023/11/02 16:10:47;;;;;;;;;;;;;;;7.98;100.00;96487.94;5034062;28;20043;-85
2023/11/02 16:13:12;;;;;;;;;;;;;;;8.00;100.00;96489.47;5034270;28;20016;-83
2023/11/02 16:15:37;;;;;;;;;;;;;;;8.16;100.00;96491.63;5034015;28;19924;-86
2023/11/02 16:18:03;;;;;;;;;;;;;;;8.19;100.00;96494.03;5016256;28;19918;-85
2023/11/02 16:20:28;;;;;;;;;;;;;;;8.04;100.00;96505.91;5014449;28;19924;-87
2023/11/02 16:22:54;;;;;;;;;;;;;;;8.03;100.00;96509.47;5015429;28;19921;-84
2023/11/02 16:25:20;;;;;;;;;;;;;;;8.31;100.00;96513.25;5031711;28;20394;-92
2023/11/02 16:27:45;;;;;;;;;;;;;;;8.21;100.00;96520.25;5014624;28;19925;-83
2023/11/02 16:30:24;;;;;;;;;;;;;;;8.13;100.00;96523.53;5017396;28;19928;-93
2023/11/02 16:32:50;;;;;;;;;;;;;;;8.19;100.00;96530.94;5024385;28;19923;-86
2023/11/02 16:35:18;;;;;;;;;;;;;;;8.48;100.00;96514.44;5032262;28;20027;-87
2023/11/02 16:37:43;;;;;;;;;;;;;;;8.44;100.00;96528.91;5031129;28;19925;-83
2023/11/02 16:40:12;;;;;;;;;;;;;;;8.33;100.00;96531.59;5032076;28;19944;-85
2023/11/02 16:42:37;;;;;;;;;;;;;;;8.21;100.00;96522.91;5032391;28;19964;-86
2023/11/02 16:45:03;;;;;;;;;;;;;;;8.54;100.00;96531.56;5014976;28;20328;-84
2023/11/02 16:47:29;;;;;;;;;;;;;;;8.28;100.00;96531.13;5031825;28;19921;-83
2023/11/02 16:49:54;;;;;;;;;;;;;;;8.08;100.00;96530.19;5032418;28;19925;-84
2023/11/02 16:52:20;;;;;;;;;;;;;;;8.19;100.00;96540.66;5031701;28;20019;-86
2023/11/02 16:54:45;;;;;;;;;;;;;;;8.29;100.00;96532.81;5033068;28;20020;-85
2023/11/02 16:57:10;;;;;;;;;;;;;;;8.35;100.00;96534.91;5013397;28;20291;-88
2023/11/02 16:59:36;;;;;;;;;;;;;;;8.31;100.00;96539.63;5034962;28;20490;-86
2023/11/02 17:02:01;;;;;;;;;;;;;;;8.28;100.00;96554.84;5033429;28;19917;-85
2023/11/02 17:04:26;;;;;;;;;;;;;;;8.37;100.00;96546.16;5015655;28;19945;-84
2023/11/02 17:06:52;;;;;;;;;;;;;;;8.27;100.00;96548.75;5014177;28;20322;-86
2023/11/02 17:09:17;;;;;;;;;;;;;;;8.13;100.00;96557.81;5015173;28;20453;-84
2023/11/02 17:11:42;;;;;;;;;;;;;;;8.13;100.00;96551.72;5015145;28;19921;-86
2023/11/02 17:14:07;;;;;;;;;;;;;;;8.15;100.00;96544.50;5014714;28;19928;-85
2023/11/02 17:16:33;;;;;;;;;;;;;;;8.26;100.00;96540.97;5015115;28;19925;-84
2023/11/02 17:18:58;;;;;;;;;;;;;;;8.27;100.00;96529.47;5034064;28;19968;-86
2023/11/02 17:21:26;;;;;;;;;;;;;;;8.22;100.00;96535.13;5013872;28;19924;-91
2023/11/02 17:23:54;;;;;;;;;;;;;;;8.37;100.00;96549.63;5032884;28;19925;-85
2023/11/02 17:26:20;;;;;;;;;;;;;;;8.15;100.00;96544.50;5014261;28;19921;-85
2023/11/02 17:28:46;;;;;;;;;;;;;;;8.28;100.00;96557.50;5012246;28;19993;-91
2023/11/02 17:31:12;;;;;;;;;;;;;;;8.45;100.00;96577.22;5031352;28;20276;-89
2023/11/02 17:33:38;;;;;;;;;;;;;;;8.25;100.00;96582.34;5031084;28;19925;-88
2023/11/02 17:36:06;;;;;;;;;;;;;;;8.19;100.00;96574.94;5007897;28;19928;-85
2023/11/02 17:38:32;;;;;;;;;;;;;;;8.21;100.00;96580.09;5031151;28;19925;-87
2023/11/02 17:40:58;;;;;;;;;;;;;;;8.13;100.00;96586.00;5032580;28;19921;-85
2023/11/02 17:43:23;;;;;;;;;;;;;;;8.29;100.00;96590.84;5031958;28;19924;-83
2023/11/02 17:45:48;;;;;;;;;;;;;;;8.26;100.00;96583.19;5032321;28;19928;-85
2023/11/02 17:48:15;;;;;;;;;;;;;;;8.21;100.00;96601.19;5032432;28;19959;-86
2023/11/02 17:50:40;;;;;;;;;;;;;;;8.29;100.00;96594.31;5013173;28;19917;-85
2023/11/02 17:53:06;;;;;;;;;;;;;;;8.31;100.00;96586.25;5032228;28;19928;-84
2023/11/02 17:55:31;;;;;;;;;;;;;;;8.32;100.00;96585.31;5014395;28;19925;-84
2023/11/02 17:57:56;;;;;;;;;;;;;;;8.16;100.00;96598.94;5012629;28;20288;-84
2023/11/02 18:00:21;;;;;;;;;;;;;;;8.19;100.00;96591.59;5032255;28;19925;-86
2023/11/02 18:02:53;;;;;;;;;;;;;;;8.21;100.00;96585.38;5028290;28;19921;-94
2023/11/02 18:05:23;;;;;;;;;;;;;;;8.18;100.00;96591.72;5012422;28;20320;-85
2023/11/02 18:07:48;;;;;;;;;;;;;;;8.11;100.00;96596.69;5031286;28;20410;-86
2023/11/02 18:10:13;;;;;;;;;;;;;;;8.14;100.00;96612.25;5031906;28;19917;-86
2023/11/02 18:12:39;;;;;;;;;;;;;;;8.16;100.00;96602.41;5031153;28;19921;-85
2023/11/02 18:15:04;;;;;;;;;;;;;;;8.09;100.00;96613.59;5012221;28;19920;-85
2023/11/02 18:17:30;;;;;;;;;;;;;;;8.14;100.00;96627.25;5031275;28;19928;-86
2023/11/02 18:19:55;;;;;;;;;;;;;;;8.08;100.00;96622.47;5013312;28;19943;-85
2023/11/02 18:22:20;;;;;;;;;;;;;;;8.07;100.00;96620.81;5030854;28;19925;-83
2023/11/02 18:24:46;;;;;;;;;;;;;;;8.10;100.00;96626.66;5013213;28;19925;-84
2023/11/02 18:27:11;;;;;;;;;;;;;;;10.45;100.00;96620.31;5013163;28;20474;-88
2023/11/02 18:29:37;;;;;;;;;;;;;;;11.80;100.00;96598.63;5014122;28;19964;-88
2023/11/02 18:32:03;;;;;;;;;;;;;;;9.39;100.00;96606.06;5032082;28;19996;-84
2023/11/02 18:34:29;;;;;;;;;;;;;;;8.67;100.00;96608.72;5014318;28;19917;-90
2023/11/02 18:36:54;;;;;;;;;;;;;;;8.45;100.00;96599.16;5009920;28;19918;-87
2023/11/02 18:39:22;;;;;;;;;;;;;;;8.39;100.00;96604.06;5027984;28;19921;-92
2023/11/02 18:41:47;;;;;;;;;;;;;;;8.30;100.00;96595.97;5016639;28;19981;-95
2023/11/02 18:44:13;;;;;;;;;;;;;;;8.32;100.00;96614.31;5035506;28;19968;-93
2023/11/02 18:46:39;;;;;;;;;;;;;;;8.34;100.00;96622.94;5032758;28;19917;-91
2023/11/02 18:49:05;;;;;;;;;;;;;;;8.24;100.00;96616.78;5030851;28;19971;-85
2023/11/02 18:51:30;;;;;;;;;;;;;;;8.16;100.00;96615.59;5012521;28;20364;-86
2023/11/02 18:53:56;;;;;;;;;;;;;;;8.19;100.00;96615.34;5031069;28;19932;-88
2023/11/02 18:56:26;;;;;;;;;;;;;;;8.15;100.00;96621.84;5029763;28;20403;-87
2023/11/02 18:58:51;;;;;;;;;;;;;;;8.16;100.00;96620.88;5031180;28;19921;-88
2023/11/02 19:01:18;;;;;;;;;;;;;;;8.12;100.00;96622.09;5032596;28;19928;-87
2023/11/02 19:03:44;;;;;;;;;;;;;;;8.12;100.00;96616.84;5031413;28;19921;-89
2023/11/02 19:06:09;;;;;;;;;;;;;;;8.09;100.00;96618.88;5028625;28;19993;-83
2023/11/02 19:08:35;;;;;;;;;;;;;;;8.07;100.00;96616.34;5040841;28;19917;-91
2023/11/02 19:11:04;;;;;;;;;;;;;;;8.05;100.00;96625.38;5014275;28;19924;-87
2023/11/02 19:13:30;;;;;;;;;;;;;;;8.06;100.00;96617.34;5013580;28;19971;-87
2023/11/02 19:16:03;;;;;;;;;;;;;;;8.00;100.00;96615.19;5036453;28;19964;-85
2023/11/02 19:18:28;;;;;;;;;;;;;;;8.05;100.00;96613.00;5036308;28;19939;-88
2023/11/02 19:20:55;;;;;;;;;;;;;;;8.03;100.00;96614.94;5032419;28;20510;-87
2023/11/02 19:23:21;;;;;;;;;;;;;;;8.02;100.00;96612.44;5016973;28;19921;-88
2023/11/02 19:25:48;;;;;;;;;;;;;;;8.00;100.00;96612.56;5017211;28;19999;-87
2023/11/02 19:28:13;;;;;;;;;;;;;;;8.03;100.00;96620.22;5016016;28;20043;-88
2023/11/02 19:30:39;;;;;;;;;;;;;;;7.95;100.00;96623.50;5034745;28;19957;-88
2023/11/02 19:33:04;;;;;;;;;;;;;;;7.97;100.00;96628.63;5034913;28;19924;-84
2023/11/02 19:35:29;;;;;;;;;;;;;;;8.03;100.00;96643.13;5033627;28;19971;-90
2023/11/02 19:37:54;;;;;;;;;;;;;;;7.99;100.00;96651.28;5035457;28;19921;-92
2023/11/02 19:40:20;;;;;;;;;;;;;;;7.96;100.00;96650.69;5018918;28;19921;-92
2023/11/02 19:42:45;;;;;;;;;;;;;;;7.98;100.00;96643.50;5035241;28;19933;-92
2023/11/02 19:45:10;;;;;;;;;;;;;;;8.12;100.00;96655.53;5034588;28;19928;-90
2023/11/02 19:47:36;;;;;;;;;;;;;;;8.02;100.00;96650.19;5017863;28;20506;-89
2023/11/02 19:50:03;;;;;;;;;;;;;;;8.04;100.00;96644.78;5016479;28;19928;-93
2023/11/02 19:52:56;;;;;;;;;;;;;;;8.08;100.00;96636.50;5018168;28;19931;-92
2023/11/02 19:55:22;;;;;;;;;;;;;;;8.07;100.00;96640.09;5033727;28;19964;-87
2023/11/02 19:57:50;;;;;;;;;;;;;;;8.08;100.00;96654.97;5034102;28;20392;-94
2023/11/02 20:00:16;;;;;;;;;;;;;;;8.22;100.00;96647.69;5021947;28;19913;-91
2023/11/02 20:02:44;;;;;;;;;;;;;;;8.06;100.00;96645.47;5035507;28;19944;-89
2023/11/02 20:05:10;;;;;;;;;;;;;;;8.19;100.00;96647.00;5015924;28;20360;-92
2023/11/02 20:07:36;;;;;;;;;;;;;;;8.16;100.00;96657.78;5036046;28;19919;-89
2023/11/02 20:10:01;;;;;;;;;;;;;;;8.15;100.00;96661.41;5014817;28;19944;-88
2023/11/02 20:12:27;;;;;;;;;;;;;;;8.28;100.00;96665.66;5016512;28;19996;-89
2023/11/02 20:14:54;;;;;;;;;;;;;;;8.24;100.00;96672.97;5038078;28;19975;-88
2023/11/02 20:17:20;;;;;;;;;;;;;;;8.20;100.00;96666.31;5014727;28;19929;-87
2023/11/02 20:19:45;;;;;;;;;;;;;;;8.18;100.00;96669.06;5015092;28;19922;-88
2023/11/02 20:22:13;;;;;;;;;;;;;;;8.19;100.00;96665.44;5005209;28;20281;-90
2023/11/02 20:24:46;;;;;;;;;;;;;;;8.25;100.00;96671.19;5027514;28;19957;-93
2023/11/02 20:27:14;;;;;;;;;;;;;;;8.22;100.00;96671.44;5005835;28;20399;-92
2023/11/02 20:29:39;;;;;;;;;;;;;;;8.28;100.00;96665.66;5005862;28;19929;-89
2023/11/02 20:32:05;;;;;;;;;;;;;;;8.17;100.00;96658.66;5006137;28;20276;-90
2023/11/02 20:34:30;;;;;;;;;;;;;;;8.15;100.00;96650.88;5022669;28;20087;-87
2023/11/02 20:36:55;;;;;;;;;;;;;;;8.16;100.00;96652.50;5020805;28;20608;-95
2023/11/02 20:39:22;;;;;;;;;;;;;;;8.15;100.00;96650.00;5011199;28;19935;-92
2023/11/02 20:41:47;;;;;;;;;;;;;;;8.18;100.00;96655.88;5008695;28;19926;-89
2023/11/02 20:44:12;;;;;;;;;;;;;;;8.19;100.00;96662.81;5006095;28;19924;-90
2023/11/02 20:46:40;;;;;;;;;;;;;;;8.21;100.00;96665.31;5005256;28;19921;-88
2023/11/02 20:49:08;;;;;;;;;;;;;;;8.23;100.00;96667.84;5007998;28;20029;-88
2023/11/02 20:51:34;;;;;;;;;;;;;;;8.22;100.00;96656.47;5005253;28;19921;-87